createdAt,value
2023-03-31T00:02:35.439Z,9.1
2023-03-31T00:14:35.324Z,8.9
2023-03-31T00:26:35.324Z,8.8
2023-03-31T00:38:36.009Z,8.6
2023-03-31T00:50:35.308Z,8.6
2023-03-31T01:02:35.358Z,8.6
2023-03-31T01:14:35.338Z,8.6
2023-03-31T01:26:35.309Z,8.7
2023-03-31T01:38:35.311Z,8.8
2023-03-31T01:50:35.347Z,8.8
2023-03-31T02:02:35.448Z,8.8
2023-03-31T02:14:35.311Z,8.7
2023-03-31T02:26:35.313Z,8.8
2023-03-31T02:38:35.426Z,8.8
2023-03-31T02:50:35.424Z,8.7
2023-03-31T03:02:35.543Z,8.6
2023-03-31T03:14:35.323Z,8.6
2023-03-31T03:26:35.442Z,8.7
2023-03-31T03:38:35.333Z,8.7
2023-03-31T03:50:35.325Z,8.7
2023-03-31T04:02:35.526Z,8.7
2023-03-31T04:14:35.422Z,8.8
2023-03-31T04:26:35.423Z,8.8
2023-03-31T04:38:35.331Z,8.7
2023-03-31T04:50:35.430Z,8.6
2023-03-31T05:02:35.402Z,8.4
2023-03-31T05:14:35.421Z,8.3
2023-03-31T05:26:35.371Z,8.3
2023-03-31T05:38:35.429Z,8.2
2023-03-31T05:50:35.441Z,8.1
2023-03-31T06:02:35.478Z,8.0
2023-03-31T06:14:35.321Z,7.9
2023-03-31T06:26:35.316Z,7.9
2023-03-31T06:38:35.429Z,7.9
2023-03-31T06:50:35.323Z,7.9
2023-03-31T07:02:35.442Z,8.0
2023-03-31T07:14:35.377Z,8.3
2023-03-31T07:26:35.318Z,8.3
2023-03-31T07:38:35.308Z,8.5
2023-03-31T07:50:35.400Z,8.8
2023-03-31T08:02:35.532Z,9.1
2023-03-31T08:14:41.148Z,9.4
2023-03-31T08:26:35.322Z,9.5
2023-03-31T08:38:35.331Z,10.4
2023-03-31T08:50:35.415Z,10.2
2023-03-31T09:02:35.558Z,10.2
2023-03-31T09:14:35.376Z,9.8
2023-03-31T09:26:35.426Z,10.0
2023-03-31T09:38:35.310Z,10.1
2023-03-31T09:50:35.349Z,10.2
2023-03-31T10:02:35.389Z,10.3
2023-03-31T10:14:35.315Z,10.4
2023-03-31T10:26:35.332Z,9.9
2023-03-31T10:38:35.321Z,10.0
2023-03-31T10:50:35.501Z,10.4
2023-03-31T11:02:35.443Z,10.4
2023-03-31T11:14:35.331Z,10.4
2023-03-31T11:26:35.333Z,10.7
2023-03-31T11:38:35.341Z,11.3
2023-03-31T11:50:35.329Z,11.3
2023-03-31T12:02:35.392Z,11.2
2023-03-31T12:14:35.374Z,11.5
2023-03-31T12:26:35.312Z,11.7
2023-03-31T12:38:35.434Z,12.0
2023-03-31T12:50:35.436Z,12.0
2023-03-31T13:02:35.415Z,11.7
2023-03-31T13:14:35.321Z,11.2
2023-03-31T13:26:35.308Z,12.2
2023-03-31T13:38:35.311Z,12.4
2023-03-31T13:50:35.372Z,12.9
2023-03-31T14:02:35.367Z,12.6
2023-03-31T14:14:35.395Z,12.3
2023-03-31T14:26:35.306Z,12.0
2023-03-31T14:38:35.372Z,11.5
2023-03-31T14:50:35.319Z,11.3
2023-03-31T15:02:35.462Z,11.0
2023-03-31T15:14:35.446Z,10.7
2023-03-31T15:26:41.648Z,10.7
2023-03-31T15:38:35.422Z,10.5
2023-03-31T15:50:35.405Z,10.1
2023-03-31T16:02:35.359Z,10.1
2023-03-31T16:14:35.304Z,10.1
2023-03-31T16:26:35.328Z,10.2
2023-03-31T16:38:35.419Z,10.5
2023-03-31T16:50:35.370Z,10.6
2023-03-31T17:02:35.412Z,10.5
2023-03-31T17:14:35.421Z,10.7
2023-03-31T17:26:35.310Z,10.7
2023-03-31T17:38:35.740Z,10.3
2023-03-31T17:50:35.424Z,9.9
2023-03-31T18:02:35.480Z,9.8
2023-03-31T18:14:35.413Z,9.5
2023-03-31T18:26:35.661Z,9.5
2023-03-31T18:38:35.389Z,9.4
2023-03-31T18:50:35.319Z,9.3
2023-03-31T19:02:35.537Z,9.3
2023-03-31T19:14:35.411Z,8.7
2023-03-31T19:26:35.317Z,8.5
2023-03-31T19:38:35.433Z,8.3
2023-03-31T19:50:35.425Z,8.3
2023-03-31T20:02:35.653Z,8.4
2023-03-31T20:14:35.330Z,8.5
2023-03-31T20:26:35.386Z,8.5
2023-03-31T20:38:35.410Z,8.5
2023-03-31T20:50:35.393Z,8.6
2023-03-31T21:02:35.499Z,8.6
2023-03-31T21:14:35.403Z,8.6
2023-03-31T21:26:35.505Z,8.7
2023-03-31T21:38:35.383Z,8.7
2023-03-31T21:50:35.440Z,8.6
2023-03-31T22:02:35.344Z,8.6
2023-03-31T22:14:35.423Z,8.6
2023-03-31T22:26:35.315Z,8.6
2023-03-31T22:38:35.424Z,8.6
2023-03-31T22:50:35.410Z,8.6
2023-03-31T23:02:35.446Z,8.6
2023-03-31T23:14:35.384Z,8.5
2023-03-31T23:26:35.330Z,8.4
2023-03-31T23:38:35.322Z,8.4
2023-03-31T23:50:35.364Z,8.3
